Ronks, PA

5:10 PM EST on November 26, 2014 (GMT -0500)
Paradise | Change Station
CLOSE
Current Station
Personal Weather Station
Location: Paradise, PA
Elevation: 365 ft
Nearby Weather Stations
Active Advisory: Winter Storm Warning Active Notice: Public Information Statement

Elev 365 ft 40.01 °N, 76.14 °W | Updated 9 minutes ago

Snow
Snow
33.1 °F
Feels Like 28 °F
N
5.0
Wind Variable Wind from WNW
Gusts 10.0 mph

Today
High -- | Low -- °F
--% Chance of Precip.
Yesterday
High -- | Low -- °F
Precip. -- in
7:02 AM 4:41 PM
Waxing Crescent, 23% visible
Pressure 29.93 in
Visibility 5.0 miles
Clouds Few 1000 ft
Overcast 2400 ft
Windchill 28 °F
Dew Point 32 °F
Humidity 96%
Rainfall 0.62 in
Snow Depth Not available.
UV 0 out of 12
Pollen .10 out of 12
Air Quality Not available.
Flu Activity Not available.
METAR KLNS 262153Z 32010KT 5SM -SN BR FEW010 OVC024 01/M01 A2992 RMK AO2 SLP133 P0003 T00111006

More Conditions Fewer Conditions

Pressure 29.93 in
Visibility 5.0 miles
Clouds Few 1000 ft
Overcast 2400 ft
Windchill 28 °F
Dew Point 32 °F
Humidity 96%
Rainfall 0.62 in
Snow Depth Not available.
UV 0 out of 12
Pollen .10 out of 12
Air Quality Not available.
Flu Activity Not available.
METAR KLNS 262153Z 32010KT 5SM -SN BR FEW010 OVC024 01/M01 A2992 RMK AO2 SLP133 P0003 T00111006

More Conditions Fewer Conditions

Nowcast | as of 3:56 PM EST on November 26, 2014

Periods of light to moderate snow will continue across the region through 7 PM. Roads will be slick and possibly snow covered in spots...so use extra caution if traveling.

×

10-Day Weather Forecast

Almanac

Astronomy

Nov. 26, 2014 Rise Set
Actual Time
Civil Twilight
Nautical Twilight
Astronomical Twilight
Moon
Length of Visible Light
Length of Day
Tomorrow will be .
, % of the Moon is Illuminated

Today's Extremes

State Highs State Lows

Community

WunderPhotos

Upload Photos

1,773,888 photos uploaded!

WunderBlogs® & News

Nearby

Air Quality

  Air Quality AQ Index Pollutant
Not available.

Snow Depth

Station Depth Elevation

Earthquake Activity

City Distance Mag. Time & Date
Minimum magnitude displayed is 2.5.

Coastal Water Temperatures

Place Temperature

Nearby Weather Stations